Time;durP1;ratioP1;P1;durP2;ratioP2;P2;SDS_P1;SDS_P2;PMS_P1;PMS_P2;Temp;Humidity;BMP_temperature;BMP_pressure;BME280_temperature;BME280_humidity;BME280_pressure;Samples;Min_cycle;Max_cycle;Signal;HPM_P1;HPM_P2
2022/07/05 00:01:48;;;;;;;;;;;;;;;;;;5015417;28;20372;-77
2022/07/05 00:04:13;;;;;;;;;;;;;;;;;;5014757;28;19937;-77
2022/07/05 00:07:17;;;;;;;;;;;;;;;;;;5016019;28;19913;-78
2022/07/05 00:09:23;;;;;;;;;;;;;;;;;;5015302;28;20015;-78
2022/07/05 00:11:48;;;;;;;;;;;;;;;;;;5015777;28;20397;-77
2022/07/05 00:14:14;;;;;;;;;;;;;;;;;;5013961;28;19917;-77
2022/07/05 00:16:39;;;;;;;;;;;;;;;;;;5014131;28;20055;-77
2022/07/05 00:19:04;;;;;;;;;;;;;;;;;;5015502;28;19948;-77
2022/07/05 00:21:29;;;;;;;;;;;;;;;;;;5015413;28;20352;-77
2022/07/05 00:23:55;;;;;;;;;;;;;;;;;;5013784;28;19971;-77
2022/07/05 00:26:20;;;;;;;;;;;;;;;;;;5015274;28;19922;-77
2022/07/05 00:28:45;;;;;;;;;;;;;;;;;;4997625;28;19913;-77
2022/07/05 00:31:10;;;;;;;;;;;;;;;;;;5015322;28;20343;-77
2022/07/05 00:33:36;;;;;;;;;;;;;;;;;;5015112;28;19913;-77
2022/07/05 00:36:01;;;;;;;;;;;;;;;;;;5015042;28;19917;-77
2022/07/05 00:38:26;;;;;;;;;;;;;;;;;;5013951;28;19937;-77
2022/07/05 00:40:52;;;;;;;;;;;;;;;;;;5015292;28;20422;-77
2022/07/05 00:43:17;;;;;;;;;;;;;;;;;;5013827;28;19909;-77
2022/07/05 00:45:43;;;;;;;;;;;;;;;;;;5015362;28;19914;-76
2022/07/05 00:48:08;;;;;;;;;;;;;;;;;;5014729;28;19922;-77
2022/07/05 00:50:33;;;;;;;;;;;;;;;;;;4997567;28;19910;-77
2022/07/05 00:52:58;;;;;;;;;;;;;;;;;;5013323;28;19909;-77
2022/07/05 00:55:24;;;;;;;;;;;;;;;;;;5013804;28;19929;-77
2022/07/05 00:57:49;;;;;;;;;;;;;;;;;;5015223;28;19996;-77
2022/07/05 01:00:15;;;;;;;;;;;;;;;;;;5013870;28;19985;-77
2022/07/05 01:02:40;;;;;;;;;;;;;;;;;;5013303;28;19920;-77
2022/07/05 01:05:05;;;;;;;;;;;;;;;;;;5014614;28;20388;-77
2022/07/05 01:07:30;;;;;;;;;;;;;;;;;;4997223;28;19932;-77
2022/07/05 01:09:56;;;;;;;;;;;;;;;;;;5013537;28;20414;-77
2022/07/05 01:12:21;;;;;;;;;;;;;;;;;;5013467;28;19913;-77
2022/07/05 01:14:47;;;;;;;;;;;;;;;;;;5012972;28;20368;-77
2022/07/05 01:17:13;;;;;;;;;;;;;;;;;;4996856;28;19940;-77
2022/07/05 01:19:38;;;;;;;;;;;;;;;;;;5013216;28;19924;-77
2022/07/05 01:22:04;;;;;;;;;;;;;;;;;;5013413;28;20025;-77
2022/07/05 01:24:29;;;;;;;;;;;;;;;;;;4996478;28;19916;-77
2022/07/05 01:26:54;;;;;;;;;;;;;;;;;;5012954;28;19924;-77
2022/07/05 01:29:19;;;;;;;;;;;;;;;;;;5014491;28;19913;-77
2022/07/05 01:31:45;;;;;;;;;;;;;;;;;;5014017;28;19999;-77
2022/07/05 01:34:10;;;;;;;;;;;;;;;;;;5013024;28;20338;-77
2022/07/05 01:36:35;;;;;;;;;;;;;;;;;;5012943;28;19909;-77
2022/07/05 01:39:02;;;;;;;;;;;;;;;;;;4996321;28;19916;-77
2022/07/05 01:41:27;;;;;;;;;;;;;;;;;;5013862;28;19914;-77
2022/07/05 01:43:52;;;;;;;;;;;;;;;;;;5012697;28;20248;-77
2022/07/05 01:46:18;;;;;;;;;;;;;;;;;;5013775;28;20261;-77
2022/07/05 01:48:43;;;;;;;;;;;;;;;;;;4995900;28;19980;-77
2022/07/05 01:51:22;;;;;;;;;;;;;;;;;;5013627;28;19917;-77
2022/07/05 01:53:49;;;;;;;;;;;;;;;;;;5012921;28;19909;-77
2022/07/05 01:56:14;;;;;;;;;;;;;;;;;;5012608;28;20374;-77
2022/07/05 01:58:39;;;;;;;;;;;;;;;;;;5013728;28;19913;-77
2022/07/05 02:01:05;;;;;;;;;;;;;;;;;;5012515;28;19917;-77
2022/07/05 02:03:30;;;;;;;;;;;;;;;;;;5012230;28;20295;-77
2022/07/05 02:05:55;;;;;;;;;;;;;;;;;;5012797;28;19921;-77
2022/07/05 02:08:20;;;;;;;;;;;;;;;;;;5013744;28;19913;-76
2022/07/05 02:10:46;;;;;;;;;;;;;;;;;;5012823;28;19909;-77
2022/07/05 02:13:12;;;;;;;;;;;;;;;;;;5012195;28;19920;-77
2022/07/05 02:15:38;;;;;;;;;;;;;;;;;;5013542;28;19958;-77
2022/07/05 02:18:03;;;;;;;;;;;;;;;;;;5012898;28;19920;-78
2022/07/05 02:20:29;;;;;;;;;;;;;;;;;;5011745;28;20249;-77
2022/07/05 02:22:54;;;;;;;;;;;;;;;;;;5013354;28;20023;-77
2022/07/05 02:25:20;;;;;;;;;;;;;;;;;;4995615;28;19909;-77
2022/07/05 02:27:45;;;;;;;;;;;;;;;;;;5012058;28;19968;-77
2022/07/05 02:30:11;;;;;;;;;;;;;;;;;;5011982;28;19920;-77
2022/07/05 02:32:36;;;;;;;;;;;;;;;;;;5011962;28;19913;-77
2022/07/05 02:35:02;;;;;;;;;;;;;;;;;;5013401;28;19936;-77
2022/07/05 02:37:27;;;;;;;;;;;;;;;;;;5013314;28;20008;-77
2022/07/05 02:39:53;;;;;;;;;;;;;;;;;;5013176;28;20008;-77
2022/07/05 02:42:18;;;;;;;;;;;;;;;;;;5013221;28;19913;-77
2022/07/05 02:44:43;;;;;;;;;;;;;;;;;;5013436;28;19913;-77
2022/07/05 02:47:08;;;;;;;;;;;;;;;;;;5012303;28;20383;-77
2022/07/05 02:49:33;;;;;;;;;;;;;;;;;;5013610;28;20303;-77
2022/07/05 02:51:59;;;;;;;;;;;;;;;;;;5012928;28;19913;-77
2022/07/05 02:54:24;;;;;;;;;;;;;;;;;;5013213;28;19913;-77
2022/07/05 02:56:49;;;;;;;;;;;;;;;;;;5011951;28;20352;-77
2022/07/05 02:59:14;;;;;;;;;;;;;;;;;;5013026;28;20320;-77
2022/07/05 03:01:40;;;;;;;;;;;;;;;;;;5013288;28;19917;-77
2022/07/05 03:04:06;;;;;;;;;;;;;;;;;;5012131;28;20052;-77
2022/07/05 03:06:31;;;;;;;;;;;;;;;;;;5012233;28;19909;-77
2022/07/05 03:08:56;;;;;;;;;;;;;;;;;;5012963;28;20353;-77
2022/07/05 03:11:22;;;;;;;;;;;;;;;;;;5013153;28;19963;-77
2022/07/05 03:13:47;;;;;;;;;;;;;;;;;;5011621;28;20325;-77
2022/07/05 03:16:13;;;;;;;;;;;;;;;;;;5013232;28;19917;-77
2022/07/05 03:18:38;;;;;;;;;;;;;;;;;;5012795;28;19921;-77
2022/07/05 03:21:03;;;;;;;;;;;;;;;;;;5012818;28;19956;-77
2022/07/05 03:23:28;;;;;;;;;;;;;;;;;;5012868;28;19921;-76
2022/07/05 03:25:54;;;;;;;;;;;;;;;;;;5012517;28;20326;-77
2022/07/05 03:28:19;;;;;;;;;;;;;;;;;;5011328;28;19916;-76
2022/07/05 03:30:44;;;;;;;;;;;;;;;;;;5012201;28;19921;-77
2022/07/05 03:33:09;;;;;;;;;;;;;;;;;;5016117;28;19915;-76
2022/07/05 03:35:35;;;;;;;;;;;;;;;;;;5016303;28;19913;-77
2022/07/05 03:38:00;;;;;;;;;;;;;;;;;;5015414;28;19913;-76
2022/07/05 03:40:25;;;;;;;;;;;;;;;;;;5016040;28;20018;-77
2022/07/05 03:42:50;;;;;;;;;;;;;;;;;;5016175;28;19920;-77
2022/07/05 03:45:16;;;;;;;;;;;;;;;;;;4998660;28;20009;-77
2022/07/05 03:47:41;;;;;;;;;;;;;;;;;;4998366;28;19913;-77
2022/07/05 03:50:06;;;;;;;;;;;;;;;;;;5016113;28;20426;-78
2022/07/05 03:52:32;;;;;;;;;;;;;;;;;;5015798;28;19917;-78
2022/07/05 03:54:57;;;;;;;;;;;;;;;;;;5014623;28;19910;-77
2022/07/05 03:57:22;;;;;;;;;;;;;;;;;;5015809;28;19917;-78
2022/07/05 03:59:47;;;;;;;;;;;;;;;;;;5014395;28;19920;-78
2022/07/05 04:02:13;;;;;;;;;;;;;;;;;;5014655;28;19914;-78
2022/07/05 04:04:38;;;;;;;;;;;;;;;;;;5014534;28;20295;-78
2022/07/05 04:07:03;;;;;;;;;;;;;;;;;;5014296;28;19909;-77
2022/07/05 04:09:29;;;;;;;;;;;;;;;;;;5014725;28;20064;-79
2022/07/05 04:11:54;;;;;;;;;;;;;;;;;;5014256;28;20067;-80
2022/07/05 04:14:19;;;;;;;;;;;;;;;;;;5014180;28;20376;-79
2022/07/05 04:16:44;;;;;;;;;;;;;;;;;;5015841;28;19967;-79
2022/07/05 04:19:10;;;;;;;;;;;;;;;;;;5013969;28;19917;-78
2022/07/05 04:21:36;;;;;;;;;;;;;;;;;;5015299;28;19917;-80
2022/07/05 04:24:01;;;;;;;;;;;;;;;;;;5014261;28;20415;-78
2022/07/05 04:26:26;;;;;;;;;;;;;;;;;;5015393;28;19944;-78
2022/07/05 04:28:52;;;;;;;;;;;;;;;;;;5015077;28;19917;-78
2022/07/05 04:31:17;;;;;;;;;;;;;;;;;;5015900;28;19914;-80
2022/07/05 04:33:42;;;;;;;;;;;;;;;;;;5015509;28;20307;-79
2022/07/05 04:36:07;;;;;;;;;;;;;;;;;;5016058;28;19957;-79
2022/07/05 04:38:33;;;;;;;;;;;;;;;;;;5015335;28;19913;-79
2022/07/05 04:40:58;;;;;;;;;;;;;;;;;;5015791;28;19918;-78
2022/07/05 04:43:23;;;;;;;;;;;;;;;;;;5015298;28;20299;-79
2022/07/05 04:45:49;;;;;;;;;;;;;;;;;;5014734;28;19922;-80
2022/07/05 04:48:14;;;;;;;;;;;;;;;;;;5015757;28;19929;-81
2022/07/05 04:50:39;;;;;;;;;;;;;;;;;;4998266;28;19913;-78
2022/07/05 04:53:05;;;;;;;;;;;;;;;;;;5015975;28;19914;-79
2022/07/05 04:55:30;;;;;;;;;;;;;;;;;;4998381;28;19909;-78
2022/07/05 04:57:55;;;;;;;;;;;;;;;;;;5015863;28;19913;-79
2022/07/05 05:00:20;;;;;;;;;;;;;;;;;;5014274;28;20368;-79
2022/07/05 05:02:45;;;;;;;;;;;;;;;;;;5015336;28;19913;-79
2022/07/05 05:05:11;;;;;;;;;;;;;;;;;;5014508;28;20004;-80
2022/07/05 05:07:38;;;;;;;;;;;;;;;;;;5014144;28;20388;-79
2022/07/05 05:10:04;;;;;;;;;;;;;;;;;;5015622;28;19917;-79
2022/07/05 05:12:29;;;;;;;;;;;;;;;;;;5014317;28;19910;-80
2022/07/05 05:14:55;;;;;;;;;;;;;;;;;;5015433;28;19924;-78
2022/07/05 05:17:20;;;;;;;;;;;;;;;;;;5015793;28;19914;-77
2022/07/05 05:19:45;;;;;;;;;;;;;;;;;;5015001;28;20018;-77
2022/07/05 05:22:11;;;;;;;;;;;;;;;;;;5015181;28;19914;-77
2022/07/05 05:24:36;;;;;;;;;;;;;;;;;;5015090;28;19914;-77
2022/07/05 05:27:02;;;;;;;;;;;;;;;;;;5013711;28;19917;-78
2022/07/05 05:29:27;;;;;;;;;;;;;;;;;;5013782;28;19909;-77
2022/07/05 05:31:53;;;;;;;;;;;;;;;;;;5014931;28;19918;-77
2022/07/05 05:34:18;;;;;;;;;;;;;;;;;;5013722;28;19917;-77
2022/07/05 05:36:43;;;;;;;;;;;;;;;;;;5014813;28;19920;-77
2022/07/05 05:39:08;;;;;;;;;;;;;;;;;;5014975;28;20388;-78
2022/07/05 05:41:33;;;;;;;;;;;;;;;;;;5014942;28;19984;-77
2022/07/05 05:43:59;;;;;;;;;;;;;;;;;;5013531;28;19917;-78
2022/07/05 05:46:24;;;;;;;;;;;;;;;;;;5014728;28;19914;-77
2022/07/05 05:48:49;;;;;;;;;;;;;;;;;;5014577;28;19975;-77
2022/07/05 05:51:14;;;;;;;;;;;;;;;;;;5013371;28;19914;-78
2022/07/05 05:53:40;;;;;;;;;;;;;;;;;;5014709;28;19924;-77
2022/07/05 05:56:05;;;;;;;;;;;;;;;;;;5014456;28;19914;-79
2022/07/05 05:58:30;;;;;;;;;;;;;;;;;;5014767;28;20276;-78
2022/07/05 06:00:56;;;;;;;;;;;;;;;;;;5013124;28;19940;-79
2022/07/05 06:03:22;;;;;;;;;;;;;;;;;;5014560;28;20047;-77
2022/07/05 06:05:47;;;;;;;;;;;;;;;;;;5013820;28;20000;-77
2022/07/05 06:08:12;;;;;;;;;;;;;;;;;;5013235;28;19998;-76
2022/07/05 06:10:38;;;;;;;;;;;;;;;;;;5013434;28;19910;-76
2022/07/05 06:13:04;;;;;;;;;;;;;;;;;;5014319;28;19913;-76
2022/07/05 06:15:30;;;;;;;;;;;;;;;;;;5013213;28;20280;-76
2022/07/05 06:17:55;;;;;;;;;;;;;;;;;;4996657;28;19910;-76
2022/07/05 06:20:21;;;;;;;;;;;;;;;;;;5012951;28;19928;-77
2022/07/05 06:22:47;;;;;;;;;;;;;;;;;;5012957;28;19961;-77
2022/07/05 06:25:12;;;;;;;;;;;;;;;;;;5013241;28;20315;-77
2022/07/05 06:27:44;;;;;;;;;;;;;;;;;;5012960;28;19945;-77
2022/07/05 06:30:10;;;;;;;;;;;;;;;;;;5013188;28;19909;-77
2022/07/05 06:32:35;;;;;;;;;;;;;;;;;;5012906;28;19909;-77
2022/07/05 06:35:01;;;;;;;;;;;;;;;;;;5014360;28;19921;-76
2022/07/05 06:37:26;;;;;;;;;;;;;;;;;;5014019;28;20364;-77
2022/07/05 06:39:51;;;;;;;;;;;;;;;;;;5012687;28;19910;-76
2022/07/05 06:42:16;;;;;;;;;;;;;;;;;;5014239;28;20044;-76
2022/07/05 06:44:42;;;;;;;;;;;;;;;;;;5014224;28;20276;-77
2022/07/05 06:47:07;;;;;;;;;;;;;;;;;;5013257;28;19916;-77
2022/07/05 06:49:32;;;;;;;;;;;;;;;;;;5013308;28;19925;-77
2022/07/05 06:51:58;;;;;;;;;;;;;;;;;;5014695;28;19917;-77
2022/07/05 06:54:23;;;;;;;;;;;;;;;;;;5014581;28;19910;-77
2022/07/05 06:56:48;;;;;;;;;;;;;;;;;;5014447;28;19921;-77
2022/07/05 06:59:13;;;;;;;;;;;;;;;;;;5013102;28;19917;-78
2022/07/05 07:01:39;;;;;;;;;;;;;;;;;;5014325;28;19964;-78
2022/07/05 07:04:04;;;;;;;;;;;;;;;;;;5014342;28;20003;-77
2022/07/05 07:06:29;;;;;;;;;;;;;;;;;;5016938;28;19921;-77
2022/07/05 07:11:38;;;;;;;;;;;;;;;;;;5017781;28;19971;-78
2022/07/05 07:14:04;;;;;;;;;;;;;;;;;;5017707;28;20383;-77
2022/07/05 07:16:29;;;;;;;;;;;;;;;;;;4999623;28;19909;-77
2022/07/05 07:18:54;;;;;;;;;;;;;;;;;;5017765;28;19913;-77
2022/07/05 07:21:19;;;;;;;;;;;;;;;;;;5017240;28;20064;-77
2022/07/05 07:23:45;;;;;;;;;;;;;;;;;;5018789;28;20288;-77
2022/07/05 07:26:10;;;;;;;;;;;;;;;;;;5017295;28;19913;-77
2022/07/05 07:28:35;;;;;;;;;;;;;;;;;;5017490;28;19913;-77
2022/07/05 07:31:00;;;;;;;;;;;;;;;;;;5017187;28;19913;-77
2022/07/05 07:33:26;;;;;;;;;;;;;;;;;;4999586;28;19913;-77
2022/07/05 07:35:51;;;;;;;;;;;;;;;;;;5017328;28;19914;-77
2022/07/05 07:38:16;;;;;;;;;;;;;;;;;;5015822;28;19957;-77
2022/07/05 07:40:41;;;;;;;;;;;;;;;;;;5016839;28;19917;-76
2022/07/05 07:43:07;;;;;;;;;;;;;;;;;;5015607;28;19914;-77
2022/07/05 07:45:32;;;;;;;;;;;;;;;;;;5015799;28;19921;-75
2022/07/05 07:47:57;;;;;;;;;;;;;;;;;;5016841;28;20292;-76
2022/07/05 07:50:22;;;;;;;;;;;;;;;;;;5017629;28;19913;-76
2022/07/05 07:52:48;;;;;;;;;;;;;;;;;;5016815;28;19914;-76
2022/07/05 07:55:14;;;;;;;;;;;;;;;;;;5017405;28;19913;-76
2022/07/05 07:57:40;;;;;;;;;;;;;;;;;;5016905;28;20394;-76
2022/07/05 08:00:05;;;;;;;;;;;;;;;;;;5017049;28;19913;-76
2022/07/05 08:02:30;;;;;;;;;;;;;;;;;;5015316;28;19909;-76
2022/07/05 08:04:57;;;;;;;;;;;;;;;;;;5015878;28;19935;-76
2022/07/05 08:07:23;;;;;;;;;;;;;;;;;;5017465;28;19921;-76
2022/07/05 08:09:48;;;;;;;;;;;;;;;;;;5016627;28;20253;-76
2022/07/05 08:12:13;;;;;;;;;;;;;;;;;;5016589;28;19932;-76
2022/07/05 08:14:39;;;;;;;;;;;;;;;;;;4999787;28;19917;-76
2022/07/05 08:17:08;;;;;;;;;;;;;;;;;;5016280;28;20265;-76
2022/07/05 08:22:17;;;;;;;;;;;;;;;;;;5017256;28;19972;-76
2022/07/05 08:24:42;;;;;;;;;;;;;;;;;;5016894;28;19918;-76
2022/07/05 08:27:08;;;;;;;;;;;;;;;;;;5016798;28;19914;-77
2022/07/05 08:29:33;;;;;;;;;;;;;;;;;;5015399;28;20322;-76
2022/07/05 08:31:58;;;;;;;;;;;;;;;;;;5015064;28;19916;-78
2022/07/05 08:34:24;;;;;;;;;;;;;;;;;;5014905;28;19916;-79
2022/07/05 08:36:49;;;;;;;;;;;;;;;;;;5016412;28;19913;-79
2022/07/05 08:39:14;;;;;;;;;;;;;;;;;;5015087;28;20075;-78
2022/07/05 08:41:41;;;;;;;;;;;;;;;;;;5014836;28;19914;-79
2022/07/05 08:44:06;;;;;;;;;;;;;;;;;;4998554;28;20004;-79
2022/07/05 08:46:32;;;;;;;;;;;;;;;;;;5014633;28;19972;-78
2022/07/05 08:48:58;;;;;;;;;;;;;;;;;;5014563;28;19917;-78
2022/07/05 08:51:23;;;;;;;;;;;;;;;;;;4998469;28;20311;-78
2022/07/05 08:53:50;;;;;;;;;;;;;;;;;;5014386;28;19913;-77
2022/07/05 08:56:15;;;;;;;;;;;;;;;;;;5014960;28;19910;-78
2022/07/05 08:58:40;;;;;;;;;;;;;;;;;;4998078;28;19910;-77
2022/07/05 09:01:07;;;;;;;;;;;;;;;;;;5014188;28;19913;-77
2022/07/05 09:03:44;;;;;;;;;;;;;;;;;;4997827;28;19916;-77
2022/07/05 09:06:11;;;;;;;;;;;;;;;;;;4998249;28;19909;-77
2022/07/05 09:08:40;;;;;;;;;;;;;;;;;;5014377;28;20330;-77
2022/07/05 09:11:09;;;;;;;;;;;;;;;;;;5014682;28;19916;-78
2022/07/05 09:13:35;;;;;;;;;;;;;;;;;;5014043;28;19918;-77
2022/07/05 09:16:00;;;;;;;;;;;;;;;;;;5014012;28;19920;-77
2022/07/05 09:18:38;;;;;;;;;;;;;;;;;;4997516;28;19913;-78
2022/07/05 09:21:12;;;;;;;;;;;;;;;;;;4997466;28;19971;-78
2022/07/05 09:23:38;;;;;;;;;;;;;;;;;;5015244;28;19916;-78
2022/07/05 09:26:03;;;;;;;;;;;;;;;;;;5013897;28;19913;-78
2022/07/05 09:28:28;;;;;;;;;;;;;;;;;;5014140;28;20355;-78
2022/07/05 09:30:53;;;;;;;;;;;;;;;;;;5013819;28;19913;-77
2022/07/05 09:33:19;;;;;;;;;;;;;;;;;;5013809;28;20375;-76
2022/07/05 09:35:54;;;;;;;;;;;;;;;;;;4997274;28;19914;-78
2022/07/05 09:38:20;;;;;;;;;;;;;;;;;;5015099;28;19971;-78
2022/07/05 09:40:47;;;;;;;;;;;;;;;;;;5013836;28;19914;-78
2022/07/05 09:43:17;;;;;;;;;;;;;;;;;;5013394;28;20299;-77
2022/07/05 09:45:54;;;;;;;;;;;;;;;;;;5013514;28;19932;-78
2022/07/05 09:48:20;;;;;;;;;;;;;;;;;;5014588;28;19924;-77
2022/07/05 09:50:45;;;;;;;;;;;;;;;;;;5013611;28;19913;-78
2022/07/05 09:53:13;;;;;;;;;;;;;;;;;;5015063;28;19913;-78
2022/07/05 09:55:40;;;;;;;;;;;;;;;;;;5013530;28;19916;-77
2022/07/05 09:58:05;;;;;;;;;;;;;;;;;;5013882;28;19953;-79
2022/07/05 10:00:30;;;;;;;;;;;;;;;;;;5015768;28;19953;-78
2022/07/05 10:03:02;;;;;;;;;;;;;;;;;;5014543;28;19916;-76
2022/07/05 10:05:28;;;;;;;;;;;;;;;;;;5014283;28;20330;-76
2022/07/05 10:07:55;;;;;;;;;;;;;;;;;;5013372;28;19909;-77
2022/07/05 10:10:22;;;;;;;;;;;;;;;;;;5013469;28;19909;-77
2022/07/05 10:12:48;;;;;;;;;;;;;;;;;;5013477;28;19916;-78
2022/07/05 10:15:14;;;;;;;;;;;;;;;;;;5013171;28;19921;-76
2022/07/05 10:17:40;;;;;;;;;;;;;;;;;;5013091;28;19952;-76
2022/07/05 10:20:08;;;;;;;;;;;;;;;;;;5013208;28;20360;-76
2022/07/05 10:22:33;;;;;;;;;;;;;;;;;;5012996;28;20008;-77
2022/07/05 10:24:59;;;;;;;;;;;;;;;;;;5013091;28;19953;-77
2022/07/05 10:27:25;;;;;;;;;;;;;;;;;;4996684;28;19948;-76
2022/07/05 10:29:50;;;;;;;;;;;;;;;;;;5013199;28;19913;-76
2022/07/05 10:32:17;;;;;;;;;;;;;;;;;;5013155;28;19921;-76
2022/07/05 10:34:46;;;;;;;;;;;;;;;;;;5013043;28;19913;-76
2022/07/05 10:37:11;;;;;;;;;;;;;;;;;;5014081;28;19917;-77
2022/07/05 10:39:37;;;;;;;;;;;;;;;;;;5014478;28;19913;-77
2022/07/05 10:42:02;;;;;;;;;;;;;;;;;;4999641;28;19921;-76
2022/07/05 10:44:31;;;;;;;;;;;;;;;;;;5019149;28;19917;-77
2022/07/05 10:47:12;;;;;;;;;;;;;;;;;;5000445;28;19909;-76
2022/07/05 10:49:38;;;;;;;;;;;;;;;;;;5017851;28;19921;-78
2022/07/05 10:52:03;;;;;;;;;;;;;;;;;;5016893;28;19913;-77
2022/07/05 10:54:29;;;;;;;;;;;;;;;;;;5016722;28;20342;-77
2022/07/05 10:57:13;;;;;;;;;;;;;;;;;;5018176;28;19913;-76
2022/07/05 10:59:57;;;;;;;;;;;;;;;;;;5016488;28;20020;-77
2022/07/05 11:02:22;;;;;;;;;;;;;;;;;;5016577;28;19913;-76
2022/07/05 11:04:47;;;;;;;;;;;;;;;;;;5017921;28;20446;-76
2022/07/05 11:07:12;;;;;;;;;;;;;;;;;;5016382;28;19964;-78
2022/07/05 11:09:38;;;;;;;;;;;;;;;;;;5017850;28;19913;-77
2022/07/05 11:12:04;;;;;;;;;;;;;;;;;;5016887;28;20351;-77
2022/07/05 11:14:30;;;;;;;;;;;;;;;;;;5016248;28;19948;-77
2022/07/05 11:17:08;;;;;;;;;;;;;;;;;;5017773;28;19909;-76
2022/07/05 11:19:33;;;;;;;;;;;;;;;;;;5017781;28;19913;-76
2022/07/05 11:21:59;;;;;;;;;;;;;;;;;;4999781;28;20418;-77
2022/07/05 11:24:25;;;;;;;;;;;;;;;;;;5016187;28;20257;-76
2022/07/05 11:26:54;;;;;;;;;;;;;;;;;;5015921;28;19913;-76
2022/07/05 11:29:38;;;;;;;;;;;;;;;;;;5016381;28;19959;-77
2022/07/05 11:32:06;;;;;;;;;;;;;;;;;;5017776;28;19921;-77
2022/07/05 11:34:33;;;;;;;;;;;;;;;;;;5016046;28;19913;-77
2022/07/05 11:37:13;;;;;;;;;;;;;;;;;;5016470;28;19910;-77
2022/07/05 11:39:38;;;;;;;;;;;;;;;;;;5017046;28;19909;-77
2022/07/05 11:42:04;;;;;;;;;;;;;;;;;;5015811;28;19924;-77
2022/07/05 11:44:32;;;;;;;;;;;;;;;;;;5017268;28;20276;-77
2022/07/05 11:46:58;;;;;;;;;;;;;;;;;;5017341;28;19988;-78
2022/07/05 11:49:23;;;;;;;;;;;;;;;;;;5015677;28;19957;-77
2022/07/05 11:51:59;;;;;;;;;;;;;;;;;;5015055;28;20407;-77
2022/07/05 11:54:25;;;;;;;;;;;;;;;;;;5015677;28;19964;-77
2022/07/05 11:56:50;;;;;;;;;;;;;;;;;;5016516;28;19963;-77
2022/07/05 11:59:25;;;;;;;;;;;;;;;;;;5016708;28;19913;-77
2022/07/05 12:01:50;;;;;;;;;;;;;;;;;;5015583;28;19953;-77
2022/07/05 12:04:26;;;;;;;;;;;;;;;;;;5017163;28;20422;-77
2022/07/05 12:06:51;;;;;;;;;;;;;;;;;;5017693;28;20323;-77
2022/07/05 12:09:21;;;;;;;;;;;;;;;;;;5015555;28;19914;-77
2022/07/05 12:14:34;;;;;;;;;;;;;;;;;;5015660;28;19975;-77
2022/07/05 12:17:12;;;;;;;;;;;;;;;;;;5015338;28;20369;-77
2022/07/05 12:19:38;;;;;;;;;;;;;;;;;;5015668;28;19916;-77
2022/07/05 12:22:03;;;;;;;;;;;;;;;;;;5015540;28;19921;-76
2022/07/05 12:24:28;;;;;;;;;;;;;;;;;;5016952;28;19920;-76
2022/07/05 12:26:54;;;;;;;;;;;;;;;;;;5015546;28;20261;-77
2022/07/05 12:29:19;;;;;;;;;;;;;;;;;;5016361;28;19952;-77
2022/07/05 12:32:00;;;;;;;;;;;;;;;;;;5016147;28;19913;-76
2022/07/05 12:34:26;;;;;;;;;;;;;;;;;;5016410;28;19913;-78
2022/07/05 12:36:51;;;;;;;;;;;;;;;;;;5016527;28;19913;-77
2022/07/05 12:39:17;;;;;;;;;;;;;;;;;;5015917;28;19920;-76
2022/07/05 12:41:42;;;;;;;;;;;;;;;;;;5015051;28;20284;-76
2022/07/05 12:44:08;;;;;;;;;;;;;;;;;;5015134;28;19913;-76
2022/07/05 12:46:39;;;;;;;;;;;;;;;;;;5017397;28;20342;-75
2022/07/05 12:49:04;;;;;;;;;;;;;;;;;;5015518;28;19924;-76
2022/07/05 12:51:33;;;;;;;;;;;;;;;;;;5015366;28;20280;-77
2022/07/05 12:59:37;;;;;;;;;;;;;;;;;;5015363;28;20051;-77
2022/07/05 13:02:02;;;;;;;;;;;;;;;;;;5014648;28;19984;-77
2022/07/05 13:04:28;;;;;;;;;;;;;;;;;;4998522;28;19910;-78
2022/07/05 13:06:57;;;;;;;;;;;;;;;;;;5018027;28;19910;-77
2022/07/05 13:09:29;;;;;;;;;;;;;;;;;;5001864;28;20447;-77
2022/07/05 13:12:13;;;;;;;;;;;;;;;;;;5015251;28;20040;-79
2022/07/05 13:14:39;;;;;;;;;;;;;;;;;;5016481;28;19917;-78
2022/07/05 13:17:04;;;;;;;;;;;;;;;;;;5015682;28;20000;-80
2022/07/05 13:19:30;;;;;;;;;;;;;;;;;;5014129;28;19910;-79
2022/07/05 13:21:55;;;;;;;;;;;;;;;;;;5013918;28;20390;-79
2022/07/05 13:24:20;;;;;;;;;;;;;;;;;;5013982;28;19913;-81
2022/07/05 13:26:46;;;;;;;;;;;;;;;;;;5015130;28;19913;-81
2022/07/05 13:29:11;;;;;;;;;;;;;;;;;;5013832;28;20403;-80
2022/07/05 13:31:36;;;;;;;;;;;;;;;;;;5015593;28;20345;-78
2022/07/05 13:34:01;;;;;;;;;;;;;;;;;;5015118;28;19983;-80
2022/07/05 13:36:27;;;;;;;;;;;;;;;;;;5015171;28;20323;-79
2022/07/05 13:38:52;;;;;;;;;;;;;;;;;;5014781;28;19923;-79
2022/07/05 13:41:17;;;;;;;;;;;;;;;;;;5015105;28;19964;-79
2022/07/05 13:43:44;;;;;;;;;;;;;;;;;;5013611;28;19921;-79
2022/07/05 13:46:09;;;;;;;;;;;;;;;;;;5014853;28;19913;-80
2022/07/05 13:48:34;;;;;;;;;;;;;;;;;;5014639;28;20391;-80
2022/07/05 13:51:00;;;;;;;;;;;;;;;;;;5013359;28;19917;-80
2022/07/05 13:53:25;;;;;;;;;;;;;;;;;;5015905;28;19920;-80
2022/07/05 13:55:50;;;;;;;;;;;;;;;;;;5015385;28;20014;-80
2022/07/05 13:58:15;;;;;;;;;;;;;;;;;;5016574;28;19913;-78
2022/07/05 14:00:41;;;;;;;;;;;;;;;;;;5015281;28;20319;-79
2022/07/05 14:03:06;;;;;;;;;;;;;;;;;;5013951;28;19913;-79
2022/07/05 14:05:31;;;;;;;;;;;;;;;;;;4998071;28;19913;-80
2022/07/05 14:07:56;;;;;;;;;;;;;;;;;;5016245;28;19935;-79
2022/07/05 14:10:22;;;;;;;;;;;;;;;;;;5014916;28;19913;-80
2022/07/05 14:12:47;;;;;;;;;;;;;;;;;;5014425;28;19920;-78
2022/07/05 14:15:12;;;;;;;;;;;;;;;;;;5012575;28;19944;-79
2022/07/05 14:17:38;;;;;;;;;;;;;;;;;;5014290;28;19913;-78
2022/07/05 14:20:04;;;;;;;;;;;;;;;;;;5014304;28;20019;-78
2022/07/05 14:22:29;;;;;;;;;;;;;;;;;;5013261;28;19995;-77
2022/07/05 14:24:54;;;;;;;;;;;;;;;;;;5014397;28;19948;-77
2022/07/05 14:27:20;;;;;;;;;;;;;;;;;;5014081;28;20265;-78
2022/07/05 14:29:45;;;;;;;;;;;;;;;;;;5014146;28;19913;-77
2022/07/05 14:32:10;;;;;;;;;;;;;;;;;;5014389;28;19917;-77
2022/07/05 14:34:35;;;;;;;;;;;;;;;;;;5014362;28;19921;-77
2022/07/05 14:37:01;;;;;;;;;;;;;;;;;;5014481;28;19996;-77
2022/07/05 14:39:26;;;;;;;;;;;;;;;;;;5014122;28;20361;-78
2022/07/05 14:41:51;;;;;;;;;;;;;;;;;;5013529;28;19917;-78
2022/07/05 14:44:17;;;;;;;;;;;;;;;;;;5012900;28;19960;-77
2022/07/05 14:46:42;;;;;;;;;;;;;;;;;;5013062;28;19918;-77
2022/07/05 14:49:07;;;;;;;;;;;;;;;;;;5012589;28;19917;-78
2022/07/05 14:51:33;;;;;;;;;;;;;;;;;;5012784;28;19971;-78
2022/07/05 14:53:58;;;;;;;;;;;;;;;;;;5014218;28;20295;-78
2022/07/05 14:56:23;;;;;;;;;;;;;;;;;;5014126;28;19917;-78
2022/07/05 14:58:49;;;;;;;;;;;;;;;;;;5012709;28;19921;-79
2022/07/05 15:01:14;;;;;;;;;;;;;;;;;;5012566;28;19917;-78
2022/07/05 15:03:39;;;;;;;;;;;;;;;;;;5012759;28;19987;-79
2022/07/05 15:06:05;;;;;;;;;;;;;;;;;;5012760;28;19913;-78
2022/07/05 15:08:30;;;;;;;;;;;;;;;;;;4996202;28;19909;-79
2022/07/05 15:10:55;;;;;;;;;;;;;;;;;;5013476;28;19940;-77
2022/07/05 15:13:21;;;;;;;;;;;;;;;;;;5014379;28;20004;-77
2022/07/05 15:15:46;;;;;;;;;;;;;;;;;;5013039;28;19917;-77
2022/07/05 15:18:11;;;;;;;;;;;;;;;;;;5013948;28;19914;-78
2022/07/05 15:20:36;;;;;;;;;;;;;;;;;;5013906;28;19964;-77
2022/07/05 15:23:02;;;;;;;;;;;;;;;;;;5012765;28;19916;-78
2022/07/05 15:25:27;;;;;;;;;;;;;;;;;;5012466;28;20300;-77
2022/07/05 15:27:52;;;;;;;;;;;;;;;;;;5016852;28;19913;-78
2022/07/05 15:30:20;;;;;;;;;;;;;;;;;;5017628;28;19919;-78
2022/07/05 15:32:45;;;;;;;;;;;;;;;;;;4999726;28;19913;-77
2022/07/05 15:35:10;;;;;;;;;;;;;;;;;;5017495;28;19909;-78
2022/07/05 15:37:36;;;;;;;;;;;;;;;;;;5000091;28;19909;-79
2022/07/05 15:40:02;;;;;;;;;;;;;;;;;;5016224;28;20360;-77
2022/07/05 15:42:27;;;;;;;;;;;;;;;;;;4999538;28;19964;-78
2022/07/05 15:44:53;;;;;;;;;;;;;;;;;;4999868;28;20008;-77
2022/07/05 15:47:18;;;;;;;;;;;;;;;;;;4999499;28;20331;-77
2022/07/05 15:49:43;;;;;;;;;;;;;;;;;;5016777;28;19921;-77
2022/07/05 15:52:08;;;;;;;;;;;;;;;;;;5017192;28;19975;-78
2022/07/05 15:54:34;;;;;;;;;;;;;;;;;;5017176;28;19913;-78
2022/07/05 15:56:59;;;;;;;;;;;;;;;;;;4999181;28;19910;-79
2022/07/05 15:59:24;;;;;;;;;;;;;;;;;;5016810;28;20443;-78
2022/07/05 16:01:50;;;;;;;;;;;;;;;;;;5015302;28;20280;-79
2022/07/05 16:04:16;;;;;;;;;;;;;;;;;;5015437;28;19920;-79
2022/07/05 16:06:41;;;;;;;;;;;;;;;;;;5016847;28;20291;-80
2022/07/05 16:09:06;;;;;;;;;;;;;;;;;;4998906;28;19913;-78
2022/07/05 16:11:32;;;;;;;;;;;;;;;;;;4998879;28;19936;-79
2022/07/05 16:13:57;;;;;;;;;;;;;;;;;;5015381;28;19917;-81
2022/07/05 16:16:22;;;;;;;;;;;;;;;;;;5015493;28;20257;-79
2022/07/05 16:18:48;;;;;;;;;;;;;;;;;;5016879;28;19956;-80
2022/07/05 16:21:14;;;;;;;;;;;;;;;;;;5016725;28;20291;-81
2022/07/05 16:23:40;;;;;;;;;;;;;;;;;;5001706;28;19963;-80
2022/07/05 16:26:06;;;;;;;;;;;;;;;;;;5015211;28;19910;-79
2022/07/05 16:28:31;;;;;;;;;;;;;;;;;;5015035;28;20012;-81
2022/07/05 16:31:07;;;;;;;;;;;;;;;;;;5016938;28;19909;-81
2022/07/05 16:33:36;;;;;;;;;;;;;;;;;;5015214;28;19963;-80
2022/07/05 16:36:05;;;;;;;;;;;;;;;;;;5016383;28;19952;-81
2022/07/05 16:38:34;;;;;;;;;;;;;;;;;;5013984;28;20024;-80
2022/07/05 16:40:59;;;;;;;;;;;;;;;;;;5014528;28;19965;-83
2022/07/05 16:43:25;;;;;;;;;;;;;;;;;;5014822;28;19931;-82
2022/07/05 16:45:50;;;;;;;;;;;;;;;;;;5014844;28;19913;-80
2022/07/05 16:48:15;;;;;;;;;;;;;;;;;;5015292;28;19928;-80
2022/07/05 16:50:41;;;;;;;;;;;;;;;;;;5016475;28;19959;-81
2022/07/05 16:53:06;;;;;;;;;;;;;;;;;;5016512;28;19969;-80